Time;durP1;ratioP1;P1;durP2;ratioP2;P2;SDS_P1;SDS_P2;PMS_P1;PMS_P2;Temp;Humidity;BMP_temperature;BMP_pressure;BME280_temperature;BME280_humidity;BME280_pressure;Samples;Min_cycle;Max_cycle;Signal;HPM_P1;HPM_P2
2023/04/14 00:00:17;;;;;;;17.30;15.95;;;;;;;10.51;70.49;99354.84;6154344;22;100772;-81
2023/04/14 00:02:43;;;;;;;17.83;16.45;;;;;;;10.56;70.43;99359.84;6177816;22;97408;-82
2023/04/14 00:05:09;;;;;;;18.60;17.10;;;;;;;10.69;70.17;99376.72;6150794;22;97318;-82
2023/04/14 00:07:34;;;;;;;19.02;17.42;;;;;;;10.58;70.07;99365.91;6178990;22;98327;-82
2023/04/14 00:10:00;;;;;;;18.50;17.00;;;;;;;10.73;69.97;99372.16;6128487;22;101780;-81
2023/04/14 00:12:25;;;;;;;18.65;17.17;;;;;;;10.62;70.04;99338.59;6152928;22;97109;-82
2023/04/14 00:14:51;;;;;;;18.33;16.77;;;;;;;10.75;69.78;99354.56;6154045;22;96877;-82
2023/04/14 00:17:16;;;;;;;17.40;15.85;;;;;;;10.75;69.76;99346.69;6153849;22;97462;-82
2023/04/14 00:19:42;;;;;;;16.98;15.57;;;;;;;10.61;70.50;99356.09;6127765;22;101737;-82
2023/04/14 00:22:07;;;;;;;17.38;15.88;;;;;;;10.57;70.49;99356.34;6125505;22;97284;-82
2023/04/14 00:24:39;;;;;;;17.45;15.95;;;;;;;10.54;70.52;99353.84;6179634;22;97402;-82
2023/04/14 00:27:05;;;;;;;;;;;;;;;10.63;70.07;99356.88;6155206;22;101841;-81
2023/04/14 00:29:30;;;;;;;17.73;16.27;;;;;;;10.65;70.40;99356.81;6154194;22;101294;-82
2023/04/14 00:31:56;;;;;;;17.80;16.50;;;;;;;10.56;70.36;99331.00;6152570;22;97251;-81
2023/04/14 00:34:21;;;;;;;17.75;16.45;;;;;;;10.49;70.45;99333.09;6129910;22;96804;-82
2023/04/14 00:36:47;;;;;;;17.58;16.27;;;;;;;10.65;70.00;99348.94;6125237;22;101431;-82
2023/04/14 00:39:12;;;;;;;17.70;16.38;;;;;;;10.67;70.05;99354.94;6178659;22;101458;-81
2023/04/14 00:41:38;;;;;;;17.33;16.13;;;;;;;10.68;70.02;99345.31;6152529;22;97048;-80
2023/04/14 00:44:04;;;;;;;8.40;5.32;;;;;;;10.50;69.88;99333.94;6129515;22;96958;-80
2023/04/14 00:46:30;;;;;;;7.65;5.35;;;;;;;10.71;69.91;99348.63;6128289;22;101626;-80
2023/04/14 00:48:55;;;;;;;7.03;5.07;;;;;;;10.63;70.09;99337.66;6178582;22;101352;-80
2023/04/14 00:51:22;;;;;;;7.97;5.38;;;;;;;10.74;69.85;99348.47;6153177;22;96692;-80
2023/04/14 00:53:49;;;;;;;9.30;5.35;;;;;;;10.71;70.08;99342.53;6153981;22;97125;-80
2023/04/14 00:56:15;;;;;;;8.15;5.63;;;;;;;10.78;69.85;99343.91;6124424;22;101356;-80
2023/04/14 00:58:40;;;;;;;8.23;5.50;;;;;;;10.71;70.15;99335.50;6124902;22;101318;-81
2023/04/14 01:01:06;;;;;;;7.40;5.68;;;;;;;10.72;70.08;99334.56;6127883;22;97125;-79
2023/04/14 01:03:33;;;;;;;8.18;5.50;;;;;;;10.73;69.83;99344.13;6129124;22;97174;-79
2023/04/14 01:05:59;;;;;;;9.05;5.57;;;;;;;10.71;70.06;99329.41;6127372;22;101408;-79
2023/04/14 01:08:26;;;;;;;11.38;7.20;;;;;;;10.68;69.79;99337.44;6129412;22;101361;-79
2023/04/14 01:11:06;;;;;;;8.10;5.22;;;;;;;10.69;69.74;99339.97;6152302;22;96831;-79
2023/04/14 01:13:51;;;;;;;9.33;5.63;;;;;;;10.66;70.11;99345.38;6154441;22;96699;-82
2023/04/14 01:16:30;;;;;;;6.35;4.90;;;;;;;10.70;69.58;99344.28;6124836;22;101781;-82
2023/04/14 01:19:20;;;;;;;7.97;4.95;;;;;;;10.62;70.26;99352.56;6152557;22;101534;-81
2023/04/14 01:21:51;;;;;;;8.77;5.32;;;;;;;10.51;69.97;99327.78;6152209;22;96672;-82
2023/04/14 01:24:38;;;;;;;10.18;5.05;;;;;;;10.60;70.05;99341.28;6154983;22;97229;-82
2023/04/14 01:27:25;;;;;;;8.05;5.25;;;;;;;10.43;70.14;99322.91;6178597;22;101600;-83
2023/04/14 01:29:54;;;;;;;8.93;5.40;;;;;;;10.56;70.22;99360.75;6153632;22;101103;-82
2023/04/14 01:32:22;;;;;;;8.52;5.47;;;;;;;10.54;70.56;99359.94;6153023;22;97090;-82
2023/04/14 01:34:56;;;;;;;7.78;5.20;;;;;;;10.50;70.39;99358.41;6150575;22;97320;-82
2023/04/14 01:37:30;;;;;;;11.18;5.13;;;;;;;10.58;70.20;99352.78;6129009;22;101232;-82
2023/04/14 01:39:57;;;;;;;;;;;;;;;10.62;70.16;99346.47;6127879;22;100978;-82
2023/04/14 01:42:25;;;;;;;7.63;4.88;;;;;;;10.63;70.14;99343.75;6150817;22;97192;-81
2023/04/14 01:44:59;;;;;;;9.95;5.55;;;;;;;10.59;70.34;99336.97;6151703;22;97052;-81
2023/04/14 01:47:25;;;;;;;9.02;4.85;;;;;;;10.64;70.38;99342.81;6128698;22;101381;-82
2023/04/14 01:49:52;;;;;;;7.25;5.10;;;;;;;10.67;70.00;99341.81;6152870;22;97878;-82
2023/04/14 01:52:19;;;;;;;7.72;5.25;;;;;;;10.50;70.26;99315.56;6125644;22;97212;-82
2023/04/14 01:54:48;;;;;;;8.02;5.32;;;;;;;10.52;70.36;99340.81;6126641;22;97140;-82
2023/04/14 01:57:15;;;;;;;9.15;5.43;;;;;;;10.57;70.50;99338.81;6155152;22;97629;-82
2023/04/14 01:59:41;;;;;;;7.68;5.28;;;;;;;10.55;70.40;99339.81;6154770;22;97800;-82
2023/04/14 02:02:11;;;;;;;8.63;5.47;;;;;;;10.57;70.44;99340.59;6130314;22;96789;-81
2023/04/14 02:04:38;;;;;;;5.65;4.28;;;;;;;10.59;70.31;99334.34;6154773;22;97485;-82
2023/04/14 02:07:04;;;;;;;8.40;5.22;;;;;;;10.56;70.39;99318.75;6128755;22;102028;-81
2023/04/14 02:09:31;;;;;;;8.13;5.03;;;;;;;10.55;70.42;99327.53;6151318;22;101186;-81
2023/04/14 02:11:57;;;;;;;5.45;4.57;;;;;;;10.54;70.53;99328.47;6128700;22;97088;-81
2023/04/14 02:14:23;;;;;;;8.15;5.15;;;;;;;10.63;69.81;99319.28;6154424;22;97355;-81
2023/04/14 02:16:51;;;;;;;8.73;5.00;;;;;;;10.60;70.03;99317.66;6129415;22;101812;-82
2023/04/14 02:19:18;;;;;;;10.18;5.38;;;;;;;10.57;69.96;99311.72;6129022;22;101261;-82
2023/04/14 02:21:44;;;;;;;9.13;5.22;;;;;;;10.50;70.08;99298.06;6153801;22;97137;-79
2023/04/14 02:24:09;;;;;;;7.30;4.65;;;;;;;10.59;70.05;99302.00;6155315;22;97130;-79
2023/04/14 02:26:38;;;;;;;7.47;5.35;;;;;;;10.50;70.02;99290.19;6127122;22;101466;-79
2023/04/14 02:29:11;;;;;;;9.00;5.03;;;;;;;10.55;70.02;99313.56;6127590;22;101087;-79
2023/04/14 02:31:46;;;;;;;8.30;4.90;;;;;;;10.40;70.91;99326.50;6154198;22;98122;-80
2023/04/14 02:34:17;;;;;;;8.60;5.45;;;;;;;10.49;70.13;99314.72;6130078;22;97787;-79
2023/04/14 02:36:51;;;;;;;7.85;5.45;;;;;;;10.50;70.13;99315.56;6180509;22;97885;-79
2023/04/14 02:39:22;;;;;;;9.95;5.57;;;;;;;10.52;70.60;99324.22;6154364;22;98463;-82
2023/04/14 02:42:14;;;;;;;7.80;4.97;;;;;;;10.43;70.57;99299.28;6154570;22;97074;-79
2023/04/14 02:44:52;;;;;;;8.52;5.35;;;;;;;10.52;70.39;99309.31;6126023;22;97307;-78
2023/04/14 02:47:39;;;;;;;9.18;5.45;;;;;;;10.46;70.31;99314.88;6154787;22;98945;-79
2023/04/14 02:50:09;;;;;;;8.93;5.88;;;;;;;10.54;70.39;99310.09;6129181;22;101719;-82
2023/04/14 02:52:38;;;;;;;7.97;5.40;;;;;;;10.50;70.66;99298.06;6154663;22;97106;-82
2023/04/14 02:55:05;;;;;;;9.73;5.45;;;;;;;10.57;70.06;99295.97;6153543;22;97297;-82
2023/04/14 02:57:32;;;;;;;6.88;4.80;;;;;;;10.42;70.05;99272.19;6129204;22;101209;-82
2023/04/14 02:59:59;;;;;;;6.82;5.10;;;;;;;10.57;70.24;99293.34;6153980;22;97447;-82
2023/04/14 03:02:26;;;;;;;10.45;5.57;;;;;;;10.48;70.37;99275.44;6151085;22;97296;-82
2023/04/14 03:05:06;;;;;;;6.38;4.95;;;;;;;10.60;70.11;99304.53;6133704;22;96991;-82
2023/04/14 03:07:43;;;;;;;9.88;5.28;;;;;;;10.46;70.55;99299.13;6156203;22;98842;-79
2023/04/14 03:10:13;;;;;;;10.43;5.60;;;;;;;10.43;70.72;99307.16;6154797;22;100059;-81
2023/04/14 03:12:41;;;;;;;10.52;6.75;;;;;;;10.36;70.94;99309.25;6129079;22;97185;-82
2023/04/14 03:15:07;;;;;;;8.63;4.88;;;;;;;10.30;70.75;99287.72;6153824;22;96744;-82
2023/04/14 03:17:34;;;;;;;10.80;5.13;;;;;;;10.52;70.54;99293.56;6152294;22;101444;-81
2023/04/14 03:20:00;;;;;;;7.50;4.38;;;;;;;10.52;70.11;99295.34;6126508;22;101347;-82
2023/04/14 03:22:27;;;;;;;6.97;5.32;;;;;;;10.41;70.39;99278.38;6128638;22;97184;-82
2023/04/14 03:24:57;;;;;;;7.30;5.07;;;;;;;10.55;70.12;99298.66;6154047;22;97186;-82
2023/04/14 03:27:28;;;;;;;6.37;5.07;;;;;;;10.46;70.42;99290.41;6155002;22;101299;-79
2023/04/14 03:30:00;;;;;;;7.30;5.40;;;;;;;10.39;70.79;99289.88;6129340;22;101499;-80
2023/04/14 03:32:32;;;;;;;8.98;5.82;;;;;;;10.36;71.16;99290.88;6129292;22;96743;-80
2023/04/14 03:35:00;;;;;;;12.98;6.28;;;;;;;10.41;70.63;99273.13;6128792;22;97223;-80
2023/04/14 03:37:27;;;;;;;11.35;6.75;;;;;;;10.49;70.24;99285.00;6151841;22;101851;-79
2023/04/14 03:39:58;;;;;;;9.43;6.30;;;;;;;10.33;70.57;99270.03;6128178;22;101312;-80
2023/04/14 03:42:27;;;;;;;9.57;6.60;;;;;;;10.27;71.05;99277.34;6130035;22;97053;-80
2023/04/14 03:44:55;;;;;;;13.35;7.05;;;;;;;10.28;71.12;99281.69;6128694;22;97410;-80
2023/04/14 03:47:25;;;;;;;14.63;7.95;;;;;;;10.29;71.21;99272.88;6154937;22;98168;-80
2023/04/14 03:49:55;;;;;;;10.60;6.90;;;;;;;10.42;70.74;99280.06;6129424;22;101044;-80
2023/04/14 03:52:22;;;;;;;9.40;7.35;;;;;;;10.39;70.63;99274.13;6129983;22;97416;-80
2023/04/14 03:54:49;;;;;;;11.20;7.10;;;;;;;10.41;70.87;99270.50;6125014;22;96752;-83
2023/04/14 03:57:16;;;;;;;11.85;7.32;;;;;;;10.39;70.85;99271.50;6154040;22;98309;-81
2023/04/14 03:59:44;;;;;;;11.45;8.30;;;;;;;10.42;70.81;99284.47;6129280;22;100893;-83
2023/04/14 04:02:10;;;;;;;12.27;7.45;;;;;;;10.39;70.64;99277.59;6153652;22;97141;-82
2023/04/14 04:04:36;;;;;;;20.27;10.07;;;;;;;10.32;71.17;99275.34;6129302;22;97371;-82
2023/04/14 04:07:02;;;;;;;15.40;8.63;;;;;;;10.26;71.29;99265.97;6128224;22;101508;-81
2023/04/14 04:09:28;;;;;;;13.35;8.35;;;;;;;10.33;71.30;99275.28;6178937;22;98170;-79
2023/04/14 04:11:58;;;;;;;17.08;8.45;;;;;;;10.34;70.96;99279.59;6127269;22;96670;-79
2023/04/14 04:14:25;;;;;;;14.32;8.43;;;;;;;10.34;71.24;99278.75;6126187;22;97390;-79
2023/04/14 04:16:53;;;;;;;16.67;9.52;;;;;;;10.31;70.93;99261.38;6128070;22;100444;-82
2023/04/14 04:19:21;;;;;;;15.27;9.60;;;;;;;10.34;71.10;99263.84;6153431;22;101081;-82
2023/04/14 04:21:49;;;;;;;13.57;8.43;;;;;;;10.30;71.24;99264.94;6153379;22;97117;-82
2023/04/14 04:24:16;;;;;;;12.07;9.00;;;;;;;10.28;71.21;99261.53;6153914;22;96756;-82
2023/04/14 04:26:42;;;;;;;14.48;9.48;;;;;;;10.26;71.29;99258.09;6154371;22;101270;-80
2023/04/14 04:29:08;;;;;;;10.85;7.88;;;;;;;10.18;71.31;99249.75;6128470;22;101003;-80
2023/04/14 04:31:35;;;;;;;13.60;9.15;;;;;;;10.33;71.12;99262.16;6150054;22;97138;-80
2023/04/14 04:34:02;;;;;;;16.20;9.68;;;;;;;10.39;71.40;99266.25;6177743;22;97211;-80
2023/04/14 04:36:30;;;;;;;16.88;10.93;;;;;;;10.39;71.30;99272.34;6153592;22;100734;-79
2023/04/14 04:38:56;;;;;;;18.30;10.60;;;;;;;10.18;70.86;99241.91;6152946;22;97923;-80
2023/04/14 04:41:27;;;;;;;15.55;10.95;;;;;;;10.37;71.03;99263.69;6128312;22;97304;-80
2023/04/14 04:43:53;;;;;;;;;;;;;;;10.25;71.33;99273.94;6128853;22;96858;-80
2023/04/14 04:46:45;;;;;;;16.48;11.00;;;;;;;10.10;71.86;99246.69;6179944;22;98354;-79
2023/04/14 04:49:13;;;;;;;17.35;10.57;;;;;;;10.24;71.77;99266.97;6126879;22;102012;-80
2023/04/14 04:51:38;;;;;;;18.95;11.15;;;;;;;10.25;71.47;99273.94;6152531;22;97002;-79
2023/04/14 04:54:05;;;;;;;22.05;12.73;;;;;;;10.26;71.36;99267.75;6153490;22;97068;-79
2023/04/14 04:56:31;;;;;;;18.92;12.70;;;;;;;10.24;71.39;99256.47;6177950;22;101263;-80
2023/04/14 04:58:58;;;;;;;20.92;12.85;;;;;;;10.15;71.79;99240.31;6152896;22;101695;-79
2023/04/14 05:01:23;;;;;;;19.10;12.05;;;;;;;10.26;71.75;99255.47;6128334;22;97462;-81
2023/04/14 05:03:49;;;;;;;21.10;13.15;;;;;;;10.31;71.85;99261.38;6175787;22;96892;-81
2023/04/14 05:06:15;;;;;;;22.23;13.23;;;;;;;10.26;71.53;99259.88;6120463;22;101790;-82
2023/04/14 05:08:41;;;;;;;18.30;12.77;;;;;;;10.25;71.85;99252.94;6149800;22;101498;-82
2023/04/14 05:11:07;;;;;;;20.92;13.07;;;;;;;10.28;71.81;99253.69;6125291;22;97138;-79
2023/04/14 05:13:32;;;;;;;21.60;14.30;;;;;;;10.22;71.54;99245.25;6126182;22;96904;-78
2023/04/14 05:16:02;;;;;;;24.10;15.15;;;;;;;10.23;71.90;99244.31;6174822;22;101120;-83
2023/04/14 05:18:28;;;;;;;22.90;15.73;;;;;;;10.06;72.37;99243.34;6176340;22;97396;-82
2023/04/14 05:20:53;;;;;;;23.65;14.82;;;;;;;10.19;71.94;99261.97;6125046;22;97351;-86
2023/04/14 05:23:19;;;;;;;25.88;15.73;;;;;;;10.17;72.15;99248.91;6177934;22;97121;-84
2023/04/14 05:25:45;;;;;;;25.95;16.05;;;;;;;10.13;72.35;99229.03;6177718;22;97365;-83
2023/04/14 05:28:12;;;;;;;25.67;15.23;;;;;;;10.15;72.46;99239.44;6177950;22;97778;-84
2023/04/14 05:30:38;;;;;;;25.23;16.50;;;;;;;10.33;72.21;99262.16;6128909;22;97304;-82
2023/04/14 05:33:03;;;;;;;28.08;16.73;;;;;;;10.29;72.23;99255.38;6154119;22;97207;-83
2023/04/14 05:35:29;;;;;;;23.80;16.45;;;;;;;10.33;72.10;99269.19;6179873;22;101663;-77
2023/04/14 05:37:55;;;;;;;29.48;17.27;;;;;;;10.20;72.26;99237.44;6152560;22;97391;-87
2023/04/14 05:40:21;;;;;;;23.92;16.70;;;;;;;10.30;71.94;99249.22;6176797;22;97857;-84
2023/04/14 05:42:49;;;;;;;28.60;18.63;;;;;;;10.35;72.15;99264.69;6179408;22;96757;-85
2023/04/14 05:45:14;;;;;;;27.20;18.17;;;;;;;10.36;72.09;99258.56;6128445;22;101430;-80
2023/04/14 05:47:40;;;;;;;28.92;18.83;;;;;;;10.35;72.32;99244.56;6130609;22;101064;-82
2023/04/14 05:50:06;;;;;;;31.90;19.85;;;;;;;10.38;72.53;99247.06;6147884;22;97543;-83
2023/04/14 05:52:32;;;;;;;28.27;19.58;;;;;;;10.39;72.15;99247.91;6154294;22;96765;-85
2023/04/14 05:54:57;;;;;;;30.92;20.13;;;;;;;10.32;72.38;99231.59;6149610;22;101853;-85
2023/04/14 05:57:23;;;;;;;29.52;19.92;;;;;;;10.37;72.44;99242.72;6127727;22;101075;-85
2023/04/14 05:59:48;;;;;;;30.35;19.42;;;;;;;10.22;72.54;99224.25;6152828;22;97416;-83
2023/04/14 06:02:14;;;;;;;28.02;19.02;;;;;;;10.29;73.23;99234.38;6153276;22;96836;-83
2023/04/14 06:04:39;;;;;;;39.60;21.65;;;;;;;10.38;72.69;99240.94;6128020;22;102072;-83
2023/04/14 06:07:05;;;;;;;27.00;19.63;;;;;;;10.36;72.63;99238.41;6153975;22;101462;-83
2023/04/14 06:09:30;;;;;;;29.80;21.20;;;;;;;10.27;73.04;99217.00;6179205;22;96767;-83
2023/04/14 06:11:56;;;;;;;33.05;22.10;;;;;;;10.41;72.43;99232.91;6153425;22;97178;-84
2023/04/14 06:14:21;;;;;;;32.05;22.17;;;;;;;10.41;72.21;99220.66;6128369;22;101105;-83
2023/04/14 06:16:49;;;;;;;34.03;22.95;;;;;;;10.45;72.63;99220.50;6154253;22;98319;-82
2023/04/14 06:19:17;;;;;;;35.72;21.50;;;;;;;10.41;72.71;99218.03;6128967;22;96960;-82
2023/04/14 06:21:42;;;;;;;33.88;21.55;;;;;;;10.39;72.37;99212.03;6152606;22;96794;-83
2023/04/14 06:24:08;;;;;;;31.35;21.35;;;;;;;10.33;73.27;99208.88;6153399;22;101839;-82
2023/04/14 06:26:33;;;;;;;32.08;21.20;;;;;;;10.41;72.98;99204.06;6154111;22;101058;-82
2023/04/14 06:28:59;;;;;;;25.63;19.33;;;;;;;10.40;72.50;99187.47;6126719;22;97300;-82
2023/04/14 06:31:25;;;;;;;24.52;18.73;;;;;;;10.43;72.98;99194.34;6153178;22;96753;-83
2023/04/14 06:33:51;;;;;;;23.25;17.17;;;;;;;10.45;72.84;99195.13;6154118;22;101034;-83
2023/04/14 06:36:17;;;;;;;24.67;17.95;;;;;;;10.39;72.58;99180.53;6153733;22;97941;-82
2023/04/14 06:38:43;;;;;;;25.50;18.45;;;;;;;10.50;72.69;99194.88;6128591;22;97577;-82
2023/04/14 06:41:08;;;;;;;24.83;18.40;;;;;;;10.45;72.55;99181.16;6127755;22;96997;-82
2023/04/14 06:43:35;;;;;;;20.25;16.60;;;;;;;10.50;72.84;99177.38;6154994;22;101198;-83
2023/04/14 06:46:01;;;;;;;18.40;15.40;;;;;;;10.48;72.99;99189.72;6153440;22;97796;-83
2023/04/14 06:48:26;;;;;;;22.52;16.85;;;;;;;10.47;72.66;99177.53;6129708;22;97044;-82
2023/04/14 06:50:55;;;;;;;22.30;16.05;;;;;;;10.48;72.57;99163.47;6152981;22;97923;-82
2023/04/14 06:53:22;;;;;;;22.85;16.85;;;;;;;10.60;72.22;99177.72;6152918;22;101416;-82
2023/04/14 06:55:50;;;;;;;16.65;14.35;;;;;;;10.54;72.57;99173.66;6178675;22;97900;-84
2023/04/14 06:58:15;;;;;;;19.00;16.08;;;;;;;10.53;72.62;99158.84;6128861;22;97178;-82
2023/04/14 07:00:41;;;;;;;20.33;15.57;;;;;;;10.64;72.68;99180.09;6154350;22;97228;-82
2023/04/14 07:03:06;;;;;;;20.13;16.27;;;;;;;10.53;72.91;99181.59;6150842;22;97788;-79
2023/04/14 07:05:32;;;;;;;19.40;16.40;;;;;;;10.62;72.85;99178.50;6153527;22;101611;-83
2023/04/14 07:07:57;;;;;;;20.85;16.42;;;;;;;10.70;72.37;99188.59;6126715;22;96808;-83
2023/04/14 07:10:23;;;;;;;18.83;14.15;;;;;;;10.71;72.30;99182.44;6127022;22;97210;-81
2023/04/14 07:12:48;;;;;;;19.00;14.73;;;;;;;10.74;72.30;99180.47;6153504;22;98060;-83
2023/04/14 07:15:14;;;;;;;17.73;14.55;;;;;;;10.74;72.37;99177.84;6153879;22;97997;-83
2023/04/14 07:17:40;;;;;;;18.10;14.32;;;;;;;10.72;72.82;99173.63;6155171;22;96693;-83
2023/04/14 07:20:06;;;;;;;16.65;13.68;;;;;;;10.78;72.10;99165.41;6127519;22;97213;-81
2023/04/14 07:22:32;;;;;;;17.52;14.63;;;;;;;10.74;71.89;99159.47;6154264;22;101278;-82
2023/04/14 07:24:57;;;;;;;18.65;15.35;;;;;;;10.61;72.43;99145.31;6154869;22;97426;-82
2023/04/14 07:27:25;;;;;;;18.25;15.18;;;;;;;10.69;72.17;99166.75;6126492;22;97778;-82
2023/04/14 07:29:52;;;;;;;20.38;15.85;;;;;;;10.65;72.25;99159.97;6131016;22;97143;-84
2023/04/14 07:32:18;;;;;;;23.95;15.95;;;;;;;10.73;72.40;99188.41;6155972;22;100918;-86
2023/04/14 07:34:44;;;;;;;18.73;15.15;;;;;;;10.65;72.13;99175.72;6156160;22;101392;-85
2023/04/14 07:37:09;;;;;;;21.58;15.30;;;;;;;10.72;72.36;99184.13;6154215;22;96697;-85
2023/04/14 07:39:36;;;;;;;17.02;14.02;;;;;;;10.63;72.22;99165.28;6131262;22;97178;-87
2023/04/14 07:42:01;;;;;;;18.33;14.82;;;;;;;10.79;72.14;99183.72;6130472;22;100573;-86
2023/04/14 07:44:27;;;;;;;16.65;13.45;;;;;;;10.76;72.26;99183.88;6157560;22;101241;-87
2023/04/14 07:46:52;;;;;;;17.02;14.57;;;;;;;10.78;72.14;99187.25;6157888;22;96715;-86
2023/04/14 07:49:18;;;;;;;17.17;13.30;;;;;;;10.80;72.03;99174.06;6131197;22;97085;-87
2023/04/14 07:51:43;;;;;;;26.23;16.23;;;;;;;10.72;71.83;99161.34;6131445;22;99768;-90
2023/04/14 07:54:10;;;;;;;17.63;14.10;;;;;;;10.73;71.98;99157.75;6178087;22;97862;-88
2023/04/14 07:56:36;;;;;;;21.83;16.00;;;;;;;10.75;71.97;99168.19;6153796;22;97133;-90
2023/04/14 07:59:01;;;;;;;23.13;20.42;;;;;;;10.67;72.43;99160.72;6181560;22;96901;-89
2023/04/14 08:01:27;;;;;;;23.73;16.35;;;;;;;10.69;72.25;99163.28;6130270;22;100866;-91
2023/04/14 08:03:53;;;;;;;19.80;16.25;;;;;;;10.73;72.58;99168.25;6151736;22;100515;-91
2023/04/14 08:06:19;;;;;;;21.15;17.38;;;;;;;10.76;72.48;99176.00;6128251;22;97233;-92
2023/04/14 08:08:45;;;;;;;22.95;16.77;;;;;;;10.62;72.30;99154.88;6128878;22;96834;-89
2023/04/14 08:11:11;;;;;;;19.55;15.65;;;;;;;10.79;72.45;99175.84;6124775;22;99941;-88
2023/04/14 08:13:36;;;;;;;18.40;14.95;;;;;;;10.78;72.43;99178.53;6150988;22;101190;-91
2023/04/14 08:16:02;;;;;;;17.95;14.70;;;;;;;10.85;71.89;99178.13;6151348;22;97069;-90
2023/04/14 08:18:28;;;;;;;18.35;14.45;;;;;;;10.74;72.33;99166.50;6150711;22;97132;-92
2023/04/14 08:20:54;;;;;;;18.40;15.20;;;;;;;10.79;72.00;99177.59;6127278;22;101097;-89
2023/04/14 08:23:21;;;;;;;34.10;15.82;;;;;;;10.79;72.51;99183.72;6151853;22;101913;-86
2023/04/14 08:25:53;;;;;;;20.50;15.68;;;;;;;10.79;72.61;99181.09;5043334;27;97895;-87
2023/04/14 08:28:19;;;;;;;19.73;16.20;;;;;;;10.75;72.86;99179.53;5029148;27;97144;-90
2023/04/14 08:30:46;;;;;;;20.52;16.67;;;;;;;10.70;72.67;99160.56;5028488;27;101509;-89
2023/04/14 08:33:12;;;;;;;21.27;16.88;;;;;;;10.67;72.68;99139.72;5045087;27;101163;-86
2023/04/14 08:35:37;;;;;;;21.10;15.98;;;;;;;10.86;72.85;99169.31;5043157;27;97497;-91
2023/04/14 08:38:03;;;;;;;25.25;15.43;;;;;;;10.87;72.46;99165.75;5011562;27;97405;-90
2023/04/14 08:40:37;;;;;;;24.63;17.98;;;;;;;10.93;72.51;99169.84;5026466;27;101414;-92
2023/04/14 08:43:03;;;;;;;20.70;15.80;;;;;;;10.94;72.64;99168.06;5052779;27;97397;-92
2023/04/14 08:45:31;;;;;;;20.33;16.10;;;;;;;10.93;72.61;99161.97;5050294;27;97276;-90
2023/04/14 08:47:58;;;;;;;22.35;17.38;;;;;;;10.97;73.06;99162.66;5020083;27;97910;-88
2023/04/14 08:50:26;;;;;;;20.45;18.02;;;;;;;10.94;72.85;99163.69;5042008;27;98364;-89
2023/04/14 08:52:54;;;;;;;23.73;17.63;;;;;;;10.94;72.48;99161.03;5038325;27;99543;-88
2023/04/14 08:55:20;;;;;;;23.67;17.42;;;;;;;10.93;72.33;99156.69;5034800;27;96946;-90
2023/04/14 08:57:47;;;;;;;22.38;16.63;;;;;;;10.98;72.59;99161.72;5020360;27;96782;-90
2023/04/14 09:00:14;;;;;;;22.27;18.80;;;;;;;10.99;72.14;99164.25;5037935;27;97889;-92
2023/04/14 09:02:39;;;;;;;33.25;29.75;;;;;;;11.09;71.96;99170.72;5026885;27;97344;-91
2023/04/14 09:05:06;;;;;;;34.08;25.33;;;;;;;11.08;71.98;99158.53;5022348;27;97187;-94
2023/04/14 09:07:33;;;;;;;25.98;18.63;;;;;;;11.04;72.29;99170.09;5044191;27;97051;-93
2023/04/14 09:09:59;;;;;;;25.10;17.48;;;;;;;11.00;72.10;99146.75;5030714;27;100394;-94
2023/04/14 09:12:26;;;;;;;23.88;18.02;;;;;;;10.99;72.48;99156.38;5062082;27;100349;-93
2023/04/14 09:14:52;;;;;;;27.85;19.83;;;;;;;10.85;72.32;99136.13;5032934;27;97243;-92
2023/04/14 09:17:19;;;;;;;28.67;25.60;;;;;;;10.99;72.80;99166.88;5031202;27;97185;-94
2023/04/14 09:19:45;;;;;;;35.92;32.13;;;;;;;11.03;72.75;99162.31;5010599;28;99891;-94
2023/04/14 09:22:11;;;;;;;32.80;29.30;;;;;;;11.10;72.69;99159.25;5039865;27;101030;-92
2023/04/14 09:24:36;;;;;;;36.10;32.60;;;;;;;10.77;72.41;99100.72;5028516;27;96940;-95
2023/04/14 09:27:06;;;;;;;30.80;27.80;;;;;;;11.17;72.73;99153.66;5033841;27;96927;-90
2023/04/14 09:29:32;;;;;;;35.00;31.67;;;;;;;11.01;72.75;99133.50;5047657;27;98258;-91
2023/04/14 09:31:58;;;;;;;34.25;30.80;;;;;;;11.15;72.55;99135.38;5053416;27;101158;-90
2023/04/14 09:34:24;;;;;;;38.10;31.48;;;;;;;11.19;72.82;99146.56;5020020;27;97656;-89
2023/04/14 09:37:06;;;;;;;38.50;34.60;;;;;;;10.95;72.47;99109.38;5012037;27;97537;-87
2023/04/14 09:39:33;;;;;;;36.20;32.45;;;;;;;11.29;72.53;99145.97;5044262;27;101132;-85
2023/04/14 09:42:02;;;;;;;37.95;34.03;;;;;;;11.35;72.43;99144.81;5011912;28;101555;-90
2023/04/14 09:44:28;;;;;;;40.40;36.33;;;;;;;11.44;72.52;99141.66;5010114;27;97570;-85
2023/04/14 09:47:03;;;;;;;41.72;36.70;;;;;;;11.53;72.68;99141.13;5006170;27;97067;-87
2023/04/14 09:49:30;;;;;;;43.67;39.10;;;;;;;11.46;72.86;99136.28;5012404;28;101706;-85
2023/04/14 09:52:07;;;;;;;42.08;37.28;;;;;;;11.45;72.50;99121.47;5012199;28;101466;-85
2023/04/14 09:54:33;;;;;;;43.67;39.13;;;;;;;11.54;72.81;99134.94;5043738;27;97140;-85
2023/04/14 09:56:58;;;;;;;42.22;37.92;;;;;;;11.35;73.42;99099.28;5013661;28;96894;-84
2023/04/14 09:59:35;;;;;;;43.22;38.63;;;;;;;11.65;73.08;99139.56;4996270;28;101818;-86
2023/04/14 10:02:06;;;;;;;42.45;37.72;;;;;;;11.69;72.24;99129.72;5025485;28;101558;-87
2023/04/14 10:04:32;;;;;;;46.40;39.97;;;;;;;11.74;72.47;99135.56;5015835;27;97561;-87
2023/04/14 10:06:58;;;;;;;46.03;41.10;;;;;;;11.70;72.30;99134.06;4984733;28;97488;-84
2023/04/14 10:09:26;;;;;;;55.35;48.97;;;;;;;11.61;72.56;99110.94;5011274;28;101671;-85
2023/04/14 10:12:09;;;;;;;36.60;26.60;;;;;;;11.70;72.53;99115.66;4999977;28;100370;-89
2023/04/14 10:14:35;;;;;;;43.03;37.95;;;;;;;11.76;72.58;99131.09;5023288;28;96701;-88
2023/04/14 10:17:01;;;;;;;45.03;40.30;;;;;;;11.83;72.22;99135.03;5017287;28;98443;-87
2023/04/14 10:19:27;;;;;;;45.25;40.35;;;;;;;11.72;72.40;99116.41;5003082;28;101477;-87
2023/04/14 10:21:53;;;;;;;46.25;41.35;;;;;;;11.80;72.55;99127.34;5008924;27;102564;-87
2023/04/14 10:24:22;;;;;;;47.58;42.60;;;;;;;11.80;72.30;99127.34;5015387;28;97136;-84
2023/04/14 10:26:48;;;;;;;49.67;43.08;;;;;;;11.71;72.61;99110.31;5033154;28;97154;-83
2023/04/14 10:29:14;;;;;;;47.58;42.08;;;;;;;11.69;72.54;99121.84;5014434;28;101811;-84
2023/04/14 10:31:42;;;;;;;48.03;42.72;;;;;;;11.72;72.90;99132.19;5015536;28;101340;-85
2023/04/14 10:34:10;;;;;;;48.10;43.08;;;;;;;11.87;72.98;99125.22;5032643;28;97250;-83
2023/04/14 10:36:36;;;;;;;48.45;42.10;;;;;;;11.89;72.84;99126.81;5024363;27;96863;-84
2023/04/14 10:39:04;;;;;;;48.25;43.00;;;;;;;11.94;72.64;99116.06;4995444;28;100424;-83
2023/04/14 10:41:41;;;;;;;48.25;42.95;;;;;;;12.00;72.31;99113.06;5016903;27;98473;-83
2023/04/14 10:44:28;;;;;;;53.63;47.33;;;;;;;11.92;72.24;99105.59;5065223;27;97356;-83
2023/04/14 10:46:55;;;;;;;52.03;45.28;;;;;;;11.98;72.18;99107.03;5027564;27;97379;-84
2023/04/14 10:49:32;;;;;;;52.20;43.88;;;;;;;12.03;71.36;99104.97;5028286;27;101069;-84
2023/04/14 10:52:00;;;;;;;48.42;42.58;;;;;;;12.05;72.00;99084.72;5043927;27;98160;-84
2023/04/14 10:54:26;;;;;;;61.65;53.60;;;;;;;12.14;71.67;99099.94;5017492;27;96843;-83
2023/04/14 10:57:11;;;;;;;60.92;53.00;;;;;;;12.18;71.66;99104.06;5010313;27;97392;-83
2023/04/14 10:59:41;;;;;;;57.10;46.65;;;;;;;12.27;71.91;99109.72;5009779;28;101334;-83
2023/04/14 11:02:36;;;;;;;58.80;47.63;;;;;;;12.24;71.14;99092.31;5018556;27;97662;-83
2023/04/14 11:05:05;;;;;;;55.25;48.15;;;;;;;12.30;71.78;99099.00;4988489;27;97247;-82
2023/04/14 11:07:44;;;;;;;63.38;51.13;;;;;;;12.27;71.43;99093.94;5039071;27;98267;-84
2023/04/14 11:10:16;;;;;;;60.67;48.53;;;;;;;12.29;71.55;99079.75;5008021;28;101700;-83
2023/04/14 11:12:44;;;;;;;;;;;;;;;12.28;71.65;99090.38;5021116;27;98058;-83
2023/04/14 11:15:10;;;;;;;58.15;47.85;;;;;;;12.27;71.81;99076.34;5010076;27;98966;-82
2023/04/14 11:17:40;;;;;;;56.42;47.25;;;;;;;12.35;70.78;99078.53;5009133;28;96882;-84
2023/04/14 11:20:22;;;;;;;62.20;49.42;;;;;;;12.42;70.80;99071.94;5039141;27;101539;-83
2023/04/14 11:22:49;;;;;;;64.32;51.33;;;;;;;12.47;70.50;99064.63;5008335;28;97436;-84